sensor_id;sensor_type;location;lat;lon;timestamp;P1;durP1;ratioP1;P2;durP2;ratioP2
43771;SDS011;59066;54.782;32.024;2022-09-20T00:01:28;3.85;;;3.28;;
43771;SDS011;59066;54.782;32.024;2022-09-20T00:03:59;4.38;;;3.45;;
43771;SDS011;59066;54.782;32.024;2022-09-20T00:06:28;4.55;;;3.40;;
43771;SDS011;59066;54.782;32.024;2022-09-20T00:08:56;6.43;;;3.50;;
43771;SDS011;59066;54.782;32.024;2022-09-20T00:11:26;5.50;;;3.45;;
43771;SDS011;59066;54.782;32.024;2022-09-20T00:13:56;5.15;;;3.53;;
43771;SDS011;59066;54.782;32.024;2022-09-20T00:16:26;5.38;;;3.42;;
43771;SDS011;59066;54.782;32.024;2022-09-20T00:18:56;3.78;;;3.20;;
43771;SDS011;59066;54.782;32.024;2022-09-20T00:21:26;3.55;;;3.20;;
43771;SDS011;59066;54.782;32.024;2022-09-20T00:23:55;5.63;;;3.47;;
43771;SDS011;59066;54.782;32.024;2022-09-20T00:26:23;5.55;;;3.83;;
43771;SDS011;59066;54.782;32.024;2022-09-20T00:28:53;4.15;;;3.45;;
43771;SDS011;59066;54.782;32.024;2022-09-20T00:31:21;4.25;;;3.47;;
43771;SDS011;59066;54.782;32.024;2022-09-20T00:33:49;4.88;;;3.75;;
43771;SDS011;59066;54.782;32.024;2022-09-20T00:36:38;5.20;;;3.50;;
43771;SDS011;59066;54.782;32.024;2022-09-20T00:39:07;4.28;;;3.67;;
43771;SDS011;59066;54.782;32.024;2022-09-20T00:41:37;4.93;;;3.42;;
43771;SDS011;59066;54.782;32.024;2022-09-20T00:47:18;6.00;;;4.00;;
43771;SDS011;59066;54.782;32.024;2022-09-20T00:49:53;5.40;;;3.90;;
43771;SDS011;59066;54.782;32.024;2022-09-20T00:52:25;6.22;;;4.00;;
43771;SDS011;59066;54.782;32.024;2022-09-20T00:54:55;5.05;;;4.10;;
43771;SDS011;59066;54.782;32.024;2022-09-20T00:57:24;5.25;;;4.05;;
43771;SDS011;59066;54.782;32.024;2022-09-20T00:59:52;4.65;;;4.07;;
43771;SDS011;59066;54.782;32.024;2022-09-20T01:02:22;6.13;;;4.00;;
43771;SDS011;59066;54.782;32.024;2022-09-20T01:04:53;6.07;;;4.00;;
43771;SDS011;59066;54.782;32.024;2022-09-20T01:07:23;5.53;;;3.88;;
43771;SDS011;59066;54.782;32.024;2022-09-20T01:09:51;5.47;;;4.07;;
43771;SDS011;59066;54.782;32.024;2022-09-20T01:12:23;5.07;;;3.92;;
43771;SDS011;59066;54.782;32.024;2022-09-20T01:14:55;5.03;;;3.83;;
43771;SDS011;59066;54.782;32.024;2022-09-20T01:17:24;5.22;;;3.63;;
43771;SDS011;59066;54.782;32.024;2022-09-20T01:28:35;6.32;;;4.22;;
43771;SDS011;59066;54.782;32.024;2022-09-20T01:36:38;5.47;;;3.83;;
43771;SDS011;59066;54.782;32.024;2022-09-20T01:39:11;6.88;;;4.00;;
43771;SDS011;59066;54.782;32.024;2022-09-20T01:42:30;4.72;;;4.07;;
43771;SDS011;59066;54.782;32.024;2022-09-20T01:47:48;7.47;;;4.47;;
43771;SDS011;59066;54.782;32.024;2022-09-20T01:56:16;5.05;;;3.90;;
43771;SDS011;59066;54.782;32.024;2022-09-20T02:05:21;5.75;;;4.18;;
43771;SDS011;59066;54.782;32.024;2022-09-20T02:11:19;5.72;;;4.45;;
43771;SDS011;59066;54.782;32.024;2022-09-20T02:14:13;6.35;;;4.13;;
43771;SDS011;59066;54.782;32.024;2022-09-20T02:17:07;6.80;;;4.20;;
43771;SDS011;59066;54.782;32.024;2022-09-20T02:33:52;7.68;;;5.28;;
43771;SDS011;59066;54.782;32.024;2022-09-20T02:36:29;7.43;;;5.88;;
43771;SDS011;59066;54.782;32.024;2022-09-20T02:47:01;7.57;;;5.15;;
43771;SDS011;59066;54.782;32.024;2022-09-20T02:55:48;8.27;;;5.65;;
43771;SDS011;59066;54.782;32.024;2022-09-20T02:58:22;8.43;;;5.13;;
43771;SDS011;59066;54.782;32.024;2022-09-20T03:01:37;6.97;;;5.07;;
43771;SDS011;59066;54.782;32.024;2022-09-20T03:06:49;8.57;;;5.57;;
43771;SDS011;59066;54.782;32.024;2022-09-20T03:09:33;8.27;;;5.50;;
43771;SDS011;59066;54.782;32.024;2022-09-20T03:17:55;10.05;;;6.38;;
43771;SDS011;59066;54.782;32.024;2022-09-20T03:26:10;8.80;;;5.40;;
43771;SDS011;59066;54.782;32.024;2022-09-20T03:29:01;7.35;;;5.72;;
43771;SDS011;59066;54.782;32.024;2022-09-20T03:40:01;8.98;;;6.38;;
43771;SDS011;59066;54.782;32.024;2022-09-20T03:42:45;8.60;;;6.45;;
43771;SDS011;59066;54.782;32.024;2022-09-20T03:48:21;6.40;;;5.35;;
43771;SDS011;59066;54.782;32.024;2022-09-20T03:54:12;7.45;;;5.97;;
43771;SDS011;59066;54.782;32.024;2022-09-20T03:57:10;7.85;;;5.75;;
43771;SDS011;59066;54.782;32.024;2022-09-20T04:14:33;8.75;;;6.05;;
43771;SDS011;59066;54.782;32.024;2022-09-20T04:17:30;7.57;;;5.63;;
43771;SDS011;59066;54.782;32.024;2022-09-20T04:20:12;11.02;;;6.55;;
43771;SDS011;59066;54.782;32.024;2022-09-20T04:22:41;10.23;;;6.60;;
43771;SDS011;59066;54.782;32.024;2022-09-20T04:25:17;9.18;;;6.43;;
43771;SDS011;59066;54.782;32.024;2022-09-20T04:27:54;8.32;;;5.93;;
43771;SDS011;59066;54.782;32.024;2022-09-20T04:30:25;8.75;;;5.80;;
43771;SDS011;59066;54.782;32.024;2022-09-20T04:33:00;8.70;;;5.88;;
43771;SDS011;59066;54.782;32.024;2022-09-20T04:35:50;9.52;;;7.72;;
43771;SDS011;59066;54.782;32.024;2022-09-20T04:44:28;7.75;;;5.50;;
43771;SDS011;59066;54.782;32.024;2022-09-20T04:55:17;10.45;;;6.88;;
43771;SDS011;59066;54.782;32.024;2022-09-20T05:01:25;9.77;;;7.30;;
43771;SDS011;59066;54.782;32.024;2022-09-20T05:04:28;12.32;;;7.68;;
43771;SDS011;59066;54.782;32.024;2022-09-20T05:16:03;9.00;;;7.03;;
43771;SDS011;59066;54.782;32.024;2022-09-20T05:24:16;10.18;;;7.88;;
43771;SDS011;59066;54.782;32.024;2022-09-20T05:29:39;13.63;;;7.82;;
43771;SDS011;59066;54.782;32.024;2022-09-20T05:35:28;10.93;;;7.93;;
43771;SDS011;59066;54.782;32.024;2022-09-20T05:41:11;14.98;;;8.30;;
43771;SDS011;59066;54.782;32.024;2022-09-20T05:44:07;11.88;;;8.55;;
43771;SDS011;59066;54.782;32.024;2022-09-20T05:52:53;10.15;;;7.47;;
43771;SDS011;59066;54.782;32.024;2022-09-20T06:12:46;10.98;;;8.45;;
43771;SDS011;59066;54.782;32.024;2022-09-20T06:21:53;10.05;;;6.95;;
43771;SDS011;59066;54.782;32.024;2022-09-20T06:27:05;8.35;;;6.63;;
43771;SDS011;59066;54.782;32.024;2022-09-20T06:29:38;9.50;;;7.50;;
43771;SDS011;59066;54.782;32.024;2022-09-20T06:32:07;9.23;;;5.97;;
43771;SDS011;59066;54.782;32.024;2022-09-20T06:34:35;8.65;;;5.88;;
43771;SDS011;59066;54.782;32.024;2022-09-20T06:37:08;6.90;;;5.50;;
43771;SDS011;59066;54.782;32.024;2022-09-20T06:40:02;8.55;;;5.65;;
43771;SDS011;59066;54.782;32.024;2022-09-20T06:43:16;8.77;;;5.63;;
43771;SDS011;59066;54.782;32.024;2022-09-20T06:45:45;8.23;;;6.22;;
43771;SDS011;59066;54.782;32.024;2022-09-20T06:48:14;7.80;;;5.93;;
43771;SDS011;59066;54.782;32.024;2022-09-20T06:50:41;11.00;;;6.10;;
43771;SDS011;59066;54.782;32.024;2022-09-20T06:53:13;7.63;;;6.57;;
43771;SDS011;59066;54.782;32.024;2022-09-20T06:55:43;7.53;;;5.28;;
43771;SDS011;59066;54.782;32.024;2022-09-20T06:58:12;9.23;;;5.90;;
43771;SDS011;59066;54.782;32.024;2022-09-20T07:00:39;9.43;;;5.32;;
43771;SDS011;59066;54.782;32.024;2022-09-20T07:03:07;8.38;;;6.00;;
43771;SDS011;59066;54.782;32.024;2022-09-20T07:05:34;9.45;;;6.32;;
43771;SDS011;59066;54.782;32.024;2022-09-20T07:08:02;8.98;;;6.13;;
43771;SDS011;59066;54.782;32.024;2022-09-20T07:10:30;9.27;;;5.85;;
43771;SDS011;59066;54.782;32.024;2022-09-20T07:12:57;9.43;;;7.00;;
43771;SDS011;59066;54.782;32.024;2022-09-20T07:15:27;8.80;;;6.93;;
43771;SDS011;59066;54.782;32.024;2022-09-20T07:17:55;8.75;;;7.07;;
43771;SDS011;59066;54.782;32.024;2022-09-20T07:20:22;9.10;;;6.75;;
43771;SDS011;59066;54.782;32.024;2022-09-20T07:22:50;7.60;;;6.63;;
43771;SDS011;59066;54.782;32.024;2022-09-20T07:25:18;10.32;;;6.97;;
43771;SDS011;59066;54.782;32.024;2022-09-20T07:27:47;10.07;;;7.22;;
43771;SDS011;59066;54.782;32.024;2022-09-20T07:30:17;9.77;;;6.63;;
43771;SDS011;59066;54.782;32.024;2022-09-20T07:32:45;8.05;;;6.65;;
43771;SDS011;59066;54.782;32.024;2022-09-20T07:35:13;10.10;;;6.15;;
43771;SDS011;59066;54.782;32.024;2022-09-20T07:37:41;11.77;;;6.13;;
43771;SDS011;59066;54.782;32.024;2022-09-20T07:40:10;9.55;;;6.97;;
43771;SDS011;59066;54.782;32.024;2022-09-20T07:42:38;10.57;;;7.50;;
43771;SDS011;59066;54.782;32.024;2022-09-20T07:45:05;7.55;;;6.20;;
43771;SDS011;59066;54.782;32.024;2022-09-20T07:47:33;7.10;;;5.30;;
43771;SDS011;59066;54.782;32.024;2022-09-20T07:50:07;10.13;;;6.90;;
43771;SDS011;59066;54.782;32.024;2022-09-20T07:52:35;6.75;;;5.25;;
43771;SDS011;59066;54.782;32.024;2022-09-20T07:55:03;6.40;;;5.22;;
43771;SDS011;59066;54.782;32.024;2022-09-20T07:57:33;7.00;;;5.78;;
43771;SDS011;59066;54.782;32.024;2022-09-20T08:00:04;6.97;;;4.72;;
43771;SDS011;59066;54.782;32.024;2022-09-20T08:02:37;5.88;;;4.63;;
43771;SDS011;59066;54.782;32.024;2022-09-20T08:05:06;7.65;;;4.20;;
43771;SDS011;59066;54.782;32.024;2022-09-20T08:07:34;7.97;;;4.10;;
43771;SDS011;59066;54.782;32.024;2022-09-20T08:10:02;5.90;;;4.75;;
43771;SDS011;59066;54.782;32.024;2022-09-20T08:12:31;5.13;;;4.00;;
43771;SDS011;59066;54.782;32.024;2022-09-20T08:15:19;6.40;;;4.25;;
43771;SDS011;59066;54.782;32.024;2022-09-20T08:17:46;6.07;;;4.20;;
43771;SDS011;59066;54.782;32.024;2022-09-20T08:20:14;3.90;;;3.28;;
43771;SDS011;59066;54.782;32.024;2022-09-20T08:22:42;5.43;;;4.18;;
43771;SDS011;59066;54.782;32.024;2022-09-20T08:25:21;4.85;;;4.03;;
43771;SDS011;59066;54.782;32.024;2022-09-20T08:27:52;5.05;;;3.75;;
43771;SDS011;59066;54.782;32.024;2022-09-20T08:30:20;6.38;;;4.28;;
43771;SDS011;59066;54.782;32.024;2022-09-20T08:32:53;3.40;;;2.72;;
43771;SDS011;59066;54.782;32.024;2022-09-20T08:35:21;4.03;;;3.25;;
43771;SDS011;59066;54.782;32.024;2022-09-20T08:37:48;5.15;;;4.20;;
43771;SDS011;59066;54.782;32.024;2022-09-20T08:40:20;4.75;;;3.50;;
43771;SDS011;59066;54.782;32.024;2022-09-20T08:42:50;4.90;;;2.92;;
43771;SDS011;59066;54.782;32.024;2022-09-20T08:45:23;4.90;;;3.72;;
43771;SDS011;59066;54.782;32.024;2022-09-20T08:48:01;4.07;;;3.05;;
43771;SDS011;59066;54.782;32.024;2022-09-20T08:50:31;7.82;;;5.75;;
43771;SDS011;59066;54.782;32.024;2022-09-20T08:53:00;6.28;;;3.55;;
43771;SDS011;59066;54.782;32.024;2022-09-20T08:55:31;3.90;;;3.20;;
43771;SDS011;59066;54.782;32.024;2022-09-20T09:00:51;4.22;;;2.92;;
43771;SDS011;59066;54.782;32.024;2022-09-20T09:03:22;4.30;;;2.85;;
43771;SDS011;59066;54.782;32.024;2022-09-20T09:05:51;3.95;;;3.30;;
43771;SDS011;59066;54.782;32.024;2022-09-20T09:08:41;4.22;;;2.95;;
43771;SDS011;59066;54.782;32.024;2022-09-20T09:11:14;5.10;;;3.40;;
43771;SDS011;59066;54.782;32.024;2022-09-20T09:16:23;4.13;;;2.72;;
43771;SDS011;59066;54.782;32.024;2022-09-20T09:22:10;5.93;;;3.83;;
43771;SDS011;59066;54.782;32.024;2022-09-20T09:24:43;6.43;;;3.78;;
43771;SDS011;59066;54.782;32.024;2022-09-20T09:27:14;4.78;;;3.63;;
43771;SDS011;59066;54.782;32.024;2022-09-20T09:29:52;5.65;;;3.92;;
43771;SDS011;59066;54.782;32.024;2022-09-20T09:32:25;5.68;;;4.10;;
43771;SDS011;59066;54.782;32.024;2022-09-20T09:37:54;4.18;;;3.30;;
43771;SDS011;59066;54.782;32.024;2022-09-20T09:40:24;4.32;;;3.80;;
43771;SDS011;59066;54.782;32.024;2022-09-20T09:42:53;5.35;;;3.42;;
43771;SDS011;59066;54.782;32.024;2022-09-20T09:45:32;5.28;;;3.60;;
43771;SDS011;59066;54.782;32.024;2022-09-20T09:48:21;3.97;;;2.80;;
43771;SDS011;59066;54.782;32.024;2022-09-20T09:53:35;3.67;;;3.05;;
43771;SDS011;59066;54.782;32.024;2022-09-20T10:01:48;3.92;;;3.40;;
43771;SDS011;59066;54.782;32.024;2022-09-20T10:09:59;5.57;;;3.67;;
43771;SDS011;59066;54.782;32.024;2022-09-20T10:21:32;5.10;;;3.60;;
43771;SDS011;59066;54.782;32.024;2022-09-20T10:24:16;4.82;;;3.65;;
43771;SDS011;59066;54.782;32.024;2022-09-20T10:30:13;7.72;;;5.53;;
43771;SDS011;59066;54.782;32.024;2022-09-20T10:32:57;4.72;;;4.15;;
43771;SDS011;59066;54.782;32.024;2022-09-20T10:44:07;8.25;;;4.75;;
43771;SDS011;59066;54.782;32.024;2022-09-20T10:47:17;4.03;;;3.15;;
43771;SDS011;59066;54.782;32.024;2022-09-20T10:55:26;7.07;;;4.43;;
43771;SDS011;59066;54.782;32.024;2022-09-20T11:01:08;8.20;;;5.82;;
43771;SDS011;59066;54.782;32.024;2022-09-20T11:09:36;8.65;;;5.25;;
43771;SDS011;59066;54.782;32.024;2022-09-20T11:14:49;7.07;;;5.38;;
43771;SDS011;59066;54.782;32.024;2022-09-20T11:20:25;8.75;;;5.38;;
43771;SDS011;59066;54.782;32.024;2022-09-20T11:22:58;9.13;;;6.20;;
43771;SDS011;59066;54.782;32.024;2022-09-20T11:25:32;11.30;;;7.20;;
43771;SDS011;59066;54.782;32.024;2022-09-20T11:31:04;9.82;;;7.88;;
43771;SDS011;59066;54.782;32.024;2022-09-20T11:33:39;9.75;;;6.70;;
43771;SDS011;59066;54.782;32.024;2022-09-20T11:36:34;10.05;;;7.50;;
43771;SDS011;59066;54.782;32.024;2022-09-20T11:39:27;13.30;;;8.27;;
43771;SDS011;59066;54.782;32.024;2022-09-20T11:42:30;8.05;;;6.05;;
43771;SDS011;59066;54.782;32.024;2022-09-20T11:45:02;10.00;;;7.32;;
43771;SDS011;59066;54.782;32.024;2022-09-20T11:47:39;12.07;;;7.22;;
43771;SDS011;59066;54.782;32.024;2022-09-20T11:58:49;8.77;;;5.43;;
43771;SDS011;59066;54.782;32.024;2022-09-20T12:04:21;8.05;;;5.75;;
43771;SDS011;59066;54.782;32.024;2022-09-20T12:09:37;7.85;;;6.75;;
43771;SDS011;59066;54.782;32.024;2022-09-20T12:12:15;8.63;;;6.68;;
43771;SDS011;59066;54.782;32.024;2022-09-20T12:15:21;7.53;;;5.43;;
43771;SDS011;59066;54.782;32.024;2022-09-20T12:26:10;6.47;;;4.20;;
43771;SDS011;59066;54.782;32.024;2022-09-20T12:28:43;7.32;;;5.13;;
43771;SDS011;59066;54.782;32.024;2022-09-20T12:33:58;6.40;;;4.32;;
43771;SDS011;59066;54.782;32.024;2022-09-20T12:36:33;6.07;;;4.45;;
43771;SDS011;59066;54.782;32.024;2022-09-20T12:39:04;5.43;;;4.15;;
43771;SDS011;59066;54.782;32.024;2022-09-20T12:44:31;6.65;;;4.60;;
43771;SDS011;59066;54.782;32.024;2022-09-20T12:58:16;5.82;;;4.05;;
43771;SDS011;59066;54.782;32.024;2022-09-20T13:03:41;6.07;;;4.97;;
43771;SDS011;59066;54.782;32.024;2022-09-20T13:09:02;9.38;;;6.40;;
43771;SDS011;59066;54.782;32.024;2022-09-20T13:11:37;7.80;;;4.82;;
43771;SDS011;59066;54.782;32.024;2022-09-20T13:14:19;8.27;;;6.25;;
43771;SDS011;59066;54.782;32.024;2022-09-20T13:16:52;7.82;;;6.35;;
43771;SDS011;59066;54.782;32.024;2022-09-20T13:21:57;10.38;;;8.50;;
43771;SDS011;59066;54.782;32.024;2022-09-20T13:24:27;9.23;;;6.80;;
43771;SDS011;59066;54.782;32.024;2022-09-20T13:27:05;9.32;;;7.80;;
43771;SDS011;59066;54.782;32.024;2022-09-20T13:29:44;9.93;;;6.75;;
43771;SDS011;59066;54.782;32.024;2022-09-20T13:35:14;8.98;;;6.30;;
43771;SDS011;59066;54.782;32.024;2022-09-20T13:37:51;6.20;;;5.53;;
43771;SDS011;59066;54.782;32.024;2022-09-20T13:43:49;8.75;;;5.80;;
43771;SDS011;59066;54.782;32.024;2022-09-20T13:46:07;7.77;;;5.93;;
43771;SDS011;59066;54.782;32.024;2022-09-20T13:48:46;6.50;;;5.13;;
43771;SDS011;59066;54.782;32.024;2022-09-20T13:51:25;6.60;;;5.50;;
43771;SDS011;59066;54.782;32.024;2022-09-20T13:54:16;7.80;;;5.20;;
43771;SDS011;59066;54.782;32.024;2022-09-20T13:56:50;7.05;;;5.72;;
43771;SDS011;59066;54.782;32.024;2022-09-20T13:59:18;7.57;;;6.78;;
43771;SDS011;59066;54.782;32.024;2022-09-20T14:01:49;9.30;;;6.22;;
43771;SDS011;59066;54.782;32.024;2022-09-20T14:04:22;6.53;;;5.70;;
43771;SDS011;59066;54.782;32.024;2022-09-20T14:06:52;12.00;;;8.23;;
43771;SDS011;59066;54.782;32.024;2022-09-20T14:12:04;5.57;;;4.40;;
43771;SDS011;59066;54.782;32.024;2022-09-20T14:14:32;7.40;;;5.25;;
43771;SDS011;59066;54.782;32.024;2022-09-20T14:17:00;6.50;;;5.20;;
43771;SDS011;59066;54.782;32.024;2022-09-20T14:19:33;6.75;;;4.80;;
43771;SDS011;59066;54.782;32.024;2022-09-20T14:22:06;6.50;;;4.32;;
43771;SDS011;59066;54.782;32.024;2022-09-20T14:24:40;7.18;;;5.25;;
43771;SDS011;59066;54.782;32.024;2022-09-20T14:27:13;7.85;;;5.40;;
43771;SDS011;59066;54.782;32.024;2022-09-20T14:29:46;7.95;;;5.03;;
43771;SDS011;59066;54.782;32.024;2022-09-20T14:34:50;5.70;;;4.40;;
43771;SDS011;59066;54.782;32.024;2022-09-20T14:37:23;6.63;;;5.30;;
43771;SDS011;59066;54.782;32.024;2022-09-20T14:40:05;6.18;;;5.47;;
43771;SDS011;59066;54.782;32.024;2022-09-20T14:43:02;6.72;;;5.45;;
43771;SDS011;59066;54.782;32.024;2022-09-20T14:45:32;6.50;;;5.18;;
43771;SDS011;59066;54.782;32.024;2022-09-20T14:48:03;5.55;;;4.72;;
43771;SDS011;59066;54.782;32.024;2022-09-20T14:50:37;8.77;;;5.90;;
43771;SDS011;59066;54.782;32.024;2022-09-20T14:55:37;6.97;;;5.03;;
43771;SDS011;59066;54.782;32.024;2022-09-20T14:58:11;8.35;;;6.57;;
43771;SDS011;59066;54.782;32.024;2022-09-20T15:00:50;7.30;;;4.45;;
43771;SDS011;59066;54.782;32.024;2022-09-20T15:03:29;7.38;;;5.15;;
43771;SDS011;59066;54.782;32.024;2022-09-20T15:05:59;6.30;;;5.30;;
43771;SDS011;59066;54.782;32.024;2022-09-20T15:08:27;5.85;;;4.72;;
43771;SDS011;59066;54.782;32.024;2022-09-20T15:10:55;7.50;;;5.43;;
43771;SDS011;59066;54.782;32.024;2022-09-20T15:13:22;7.63;;;5.70;;
43771;SDS011;59066;54.782;32.024;2022-09-20T15:15:50;7.32;;;6.50;;
43771;SDS011;59066;54.782;32.024;2022-09-20T15:20:50;8.30;;;6.60;;
43771;SDS011;59066;54.782;32.024;2022-09-20T15:23:19;9.02;;;6.53;;
43771;SDS011;59066;54.782;32.024;2022-09-20T15:25:50;7.22;;;5.40;;
43771;SDS011;59066;54.782;32.024;2022-09-20T15:28:19;6.50;;;5.10;;
43771;SDS011;59066;54.782;32.024;2022-09-20T15:30:48;12.55;;;7.72;;
43771;SDS011;59066;54.782;32.024;2022-09-20T15:33:17;13.73;;;9.20;;
43771;SDS011;59066;54.782;32.024;2022-09-20T15:35:46;9.27;;;6.32;;
43771;SDS011;59066;54.782;32.024;2022-09-20T15:38:43;10.18;;;7.78;;
43771;SDS011;59066;54.782;32.024;2022-09-20T15:41:11;11.38;;;6.40;;
43771;SDS011;59066;54.782;32.024;2022-09-20T15:43:38;8.90;;;7.28;;
43771;SDS011;59066;54.782;32.024;2022-09-20T15:46:16;8.63;;;7.18;;
43771;SDS011;59066;54.782;32.024;2022-09-20T15:48:50;8.85;;;7.03;;
43771;SDS011;59066;54.782;32.024;2022-09-20T15:51:17;9.77;;;7.72;;
43771;SDS011;59066;54.782;32.024;2022-09-20T15:53:46;8.75;;;7.25;;
43771;SDS011;59066;54.782;32.024;2022-09-20T15:56:21;9.30;;;7.85;;
43771;SDS011;59066;54.782;32.024;2022-09-20T15:59:05;10.60;;;7.72;;
43771;SDS011;59066;54.782;32.024;2022-09-20T16:01:47;9.68;;;7.00;;
43771;SDS011;59066;54.782;32.024;2022-09-20T16:04:15;18.27;;;10.63;;
43771;SDS011;59066;54.782;32.024;2022-09-20T16:06:46;11.20;;;8.25;;
43771;SDS011;59066;54.782;32.024;2022-09-20T16:09:15;10.80;;;6.93;;
43771;SDS011;59066;54.782;32.024;2022-09-20T16:11:44;9.07;;;6.15;;
43771;SDS011;59066;54.782;32.024;2022-09-20T16:14:14;12.48;;;9.93;;
43771;SDS011;59066;54.782;32.024;2022-09-20T16:17:00;12.15;;;7.80;;
43771;SDS011;59066;54.782;32.024;2022-09-20T16:19:27;9.95;;;6.70;;
43771;SDS011;59066;54.782;32.024;2022-09-20T16:21:58;15.10;;;11.68;;
43771;SDS011;59066;54.782;32.024;2022-09-20T16:24:30;12.48;;;8.13;;
43771;SDS011;59066;54.782;32.024;2022-09-20T16:27:00;8.00;;;6.50;;
43771;SDS011;59066;54.782;32.024;2022-09-20T16:29:30;8.93;;;6.55;;
43771;SDS011;59066;54.782;32.024;2022-09-20T16:31:58;9.20;;;6.70;;
43771;SDS011;59066;54.782;32.024;2022-09-20T16:34:28;11.13;;;7.70;;
43771;SDS011;59066;54.782;32.024;2022-09-20T16:36:58;10.13;;;7.15;;
43771;SDS011;59066;54.782;32.024;2022-09-20T16:39:31;8.10;;;6.97;;
43771;SDS011;59066;54.782;32.024;2022-09-20T16:44:59;10.82;;;8.20;;
43771;SDS011;59066;54.782;32.024;2022-09-20T16:47:33;14.27;;;9.30;;
43771;SDS011;59066;54.782;32.024;2022-09-20T16:50:06;12.05;;;7.63;;
43771;SDS011;59066;54.782;32.024;2022-09-20T16:52:36;11.60;;;9.52;;
43771;SDS011;59066;54.782;32.024;2022-09-20T16:55:04;9.38;;;7.63;;
43771;SDS011;59066;54.782;32.024;2022-09-20T16:57:32;10.48;;;6.63;;
43771;SDS011;59066;54.782;32.024;2022-09-20T17:00:00;9.48;;;6.95;;
43771;SDS011;59066;54.782;32.024;2022-09-20T17:02:27;10.50;;;7.03;;
43771;SDS011;59066;54.782;32.024;2022-09-20T17:04:55;13.57;;;8.43;;
43771;SDS011;59066;54.782;32.024;2022-09-20T17:07:22;8.65;;;6.82;;
43771;SDS011;59066;54.782;32.024;2022-09-20T17:09:50;10.30;;;7.70;;
43771;SDS011;59066;54.782;32.024;2022-09-20T17:12:17;15.02;;;9.82;;
43771;SDS011;59066;54.782;32.024;2022-09-20T17:14:54;10.77;;;8.10;;
43771;SDS011;59066;54.782;32.024;2022-09-20T17:17:24;17.17;;;10.60;;
43771;SDS011;59066;54.782;32.024;2022-09-20T17:19:51;9.93;;;6.97;;
43771;SDS011;59066;54.782;32.024;2022-09-20T17:22:18;11.07;;;6.70;;
43771;SDS011;59066;54.782;32.024;2022-09-20T17:24:46;10.18;;;7.35;;
43771;SDS011;59066;54.782;32.024;2022-09-20T17:27:16;11.63;;;8.73;;
43771;SDS011;59066;54.782;32.024;2022-09-20T17:29:43;13.23;;;8.27;;
43771;SDS011;59066;54.782;32.024;2022-09-20T17:32:48;12.75;;;9.13;;
43771;SDS011;59066;54.782;32.024;2022-09-20T17:35:17;12.80;;;10.48;;
43771;SDS011;59066;54.782;32.024;2022-09-20T17:37:44;14.32;;;10.70;;
43771;SDS011;59066;54.782;32.024;2022-09-20T17:40:12;12.88;;;9.13;;
43771;SDS011;59066;54.782;32.024;2022-09-20T17:42:39;12.77;;;9.02;;
43771;SDS011;59066;54.782;32.024;2022-09-20T17:45:09;11.68;;;8.63;;
43771;SDS011;59066;54.782;32.024;2022-09-20T17:47:39;13.63;;;9.35;;
43771;SDS011;59066;54.782;32.024;2022-09-20T17:50:13;10.65;;;6.90;;
43771;SDS011;59066;54.782;32.024;2022-09-20T17:52:41;16.40;;;11.57;;
43771;SDS011;59066;54.782;32.024;2022-09-20T17:55:08;17.75;;;11.18;;
43771;SDS011;59066;54.782;32.024;2022-09-20T17:57:35;10.75;;;7.78;;
43771;SDS011;59066;54.782;32.024;2022-09-20T18:00:04;8.57;;;6.93;;
43771;SDS011;59066;54.782;32.024;2022-09-20T18:02:32;11.50;;;7.28;;
43771;SDS011;59066;54.782;32.024;2022-09-20T18:05:00;10.52;;;7.50;;
43771;SDS011;59066;54.782;32.024;2022-09-20T18:07:27;9.18;;;6.68;;
43771;SDS011;59066;54.782;32.024;2022-09-20T18:09:55;9.82;;;6.88;;
43771;SDS011;59066;54.782;32.024;2022-09-20T18:12:23;7.60;;;5.90;;
43771;SDS011;59066;54.782;32.024;2022-09-20T18:14:50;10.00;;;6.40;;
43771;SDS011;59066;54.782;32.024;2022-09-20T18:17:17;8.35;;;6.28;;
43771;SDS011;59066;54.782;32.024;2022-09-20T18:19:45;8.10;;;6.45;;
43771;SDS011;59066;54.782;32.024;2022-09-20T18:22:12;8.60;;;6.18;;
43771;SDS011;59066;54.782;32.024;2022-09-20T18:24:43;10.07;;;7.57;;
43771;SDS011;59066;54.782;32.024;2022-09-20T18:27:10;8.38;;;6.82;;
43771;SDS011;59066;54.782;32.024;2022-09-20T18:29:39;10.65;;;6.78;;
43771;SDS011;59066;54.782;32.024;2022-09-20T18:32:06;9.95;;;6.88;;
43771;SDS011;59066;54.782;32.024;2022-09-20T18:34:40;8.07;;;5.75;;
43771;SDS011;59066;54.782;32.024;2022-09-20T18:37:07;5.68;;;4.95;;
43771;SDS011;59066;54.782;32.024;2022-09-20T18:39:39;7.40;;;5.10;;
43771;SDS011;59066;54.782;32.024;2022-09-20T18:42:07;7.10;;;5.75;;
43771;SDS011;59066;54.782;32.024;2022-09-20T18:44:36;12.93;;;7.50;;
43771;SDS011;59066;54.782;32.024;2022-09-20T18:47:03;10.15;;;6.78;;
43771;SDS011;59066;54.782;32.024;2022-09-20T18:49:31;9.13;;;5.70;;
43771;SDS011;59066;54.782;32.024;2022-09-20T18:52:17;8.05;;;5.70;;
43771;SDS011;59066;54.782;32.024;2022-09-20T18:54:49;7.20;;;4.97;;
43771;SDS011;59066;54.782;32.024;2022-09-20T18:57:37;11.00;;;6.15;;
43771;SDS011;59066;54.782;32.024;2022-09-20T19:00:04;7.65;;;5.68;;
43771;SDS011;59066;54.782;32.024;2022-09-20T19:02:49;9.38;;;5.22;;
43771;SDS011;59066;54.782;32.024;2022-09-20T19:05:26;8.95;;;5.85;;
43771;SDS011;59066;54.782;32.024;2022-09-20T19:11:01;7.97;;;5.95;;
43771;SDS011;59066;54.782;32.024;2022-09-20T19:13:49;8.32;;;6.28;;
43771;SDS011;59066;54.782;32.024;2022-09-20T19:16:26;11.73;;;6.38;;
43771;SDS011;59066;54.782;32.024;2022-09-20T19:27:09;12.82;;;8.05;;
43771;SDS011;59066;54.782;32.024;2022-09-20T19:29:38;11.30;;;7.10;;
43771;SDS011;59066;54.782;32.024;2022-09-20T19:32:12;12.13;;;7.90;;
43771;SDS011;59066;54.782;32.024;2022-09-20T19:40:43;6.90;;;4.45;;
43771;SDS011;59066;54.782;32.024;2022-09-20T19:48:51;10.63;;;6.03;;
43771;SDS011;59066;54.782;32.024;2022-09-20T19:51:36;9.77;;;5.70;;
43771;SDS011;59066;54.782;32.024;2022-09-20T19:54:04;7.40;;;5.70;;
43771;SDS011;59066;54.782;32.024;2022-09-20T19:56:40;14.38;;;6.10;;
43771;SDS011;59066;54.782;32.024;2022-09-20T19:59:19;9.00;;;6.20;;
43771;SDS011;59066;54.782;32.024;2022-09-20T20:01:48;6.38;;;4.93;;
43771;SDS011;59066;54.782;32.024;2022-09-20T20:04:15;9.30;;;6.07;;
43771;SDS011;59066;54.782;32.024;2022-09-20T20:07:02;7.15;;;5.30;;
43771;SDS011;59066;54.782;32.024;2022-09-20T20:09:43;6.70;;;5.22;;
43771;SDS011;59066;54.782;32.024;2022-09-20T20:15:40;7.80;;;5.97;;
43771;SDS011;59066;54.782;32.024;2022-09-20T20:18:16;9.23;;;6.25;;
43771;SDS011;59066;54.782;32.024;2022-09-20T20:20:51;6.35;;;4.93;;
43771;SDS011;59066;54.782;32.024;2022-09-20T20:26:09;6.93;;;4.90;;
43771;SDS011;59066;54.782;32.024;2022-09-20T20:28:45;6.93;;;5.28;;
43771;SDS011;59066;54.782;32.024;2022-09-20T20:31:13;6.90;;;5.20;;
43771;SDS011;59066;54.782;32.024;2022-09-20T20:33:45;12.32;;;9.73;;
43771;SDS011;59066;54.782;32.024;2022-09-20T20:36:13;10.82;;;7.38;;
43771;SDS011;59066;54.782;32.024;2022-09-20T20:38:42;11.25;;;8.40;;
43771;SDS011;59066;54.782;32.024;2022-09-20T20:41:16;13.63;;;9.40;;
43771;SDS011;59066;54.782;32.024;2022-09-20T20:43:45;11.98;;;8.85;;
43771;SDS011;59066;54.782;32.024;2022-09-20T20:46:14;10.80;;;8.00;;
43771;SDS011;59066;54.782;32.024;2022-09-20T20:48:46;7.72;;;5.63;;
43771;SDS011;59066;54.782;32.024;2022-09-20T20:51:14;10.38;;;7.97;;
43771;SDS011;59066;54.782;32.024;2022-09-20T20:53:45;10.50;;;8.18;;
43771;SDS011;59066;54.782;32.024;2022-09-20T20:56:34;14.13;;;11.20;;